sensor_id;sensor_type;location;lat;lon;timestamp;P1;durP1;ratioP1;P2;durP2;ratioP2
7320;SDS011;3701;49.346;8.798;2022-08-04T00:01:12;3.60;;;2.83;;
7320;SDS011;3701;49.346;8.798;2022-08-04T00:03:50;3.03;;;2.77;;
7320;SDS011;3701;49.346;8.798;2022-08-04T00:06:31;3.30;;;2.97;;
7320;SDS011;3701;49.346;8.798;2022-08-04T00:09:13;3.30;;;2.50;;
7320;SDS011;3701;49.346;8.798;2022-08-04T00:11:46;3.00;;;2.70;;
7320;SDS011;3701;49.346;8.798;2022-08-04T00:14:14;3.73;;;2.40;;
7320;SDS011;3701;49.346;8.798;2022-08-04T00:16:40;3.17;;;2.80;;
7320;SDS011;3701;49.346;8.798;2022-08-04T00:19:52;3.43;;;2.60;;
7320;SDS011;3701;49.346;8.798;2022-08-04T00:22:02;4.27;;;2.63;;
7320;SDS011;3701;49.346;8.798;2022-08-04T01:51:21;4.23;;;3.70;;
7320;SDS011;3701;49.346;8.798;2022-08-04T01:53:51;6.37;;;4.90;;
7320;SDS011;3701;49.346;8.798;2022-08-04T01:56:16;5.17;;;4.67;;
7320;SDS011;3701;49.346;8.798;2022-08-04T01:58:48;5.40;;;4.20;;
7320;SDS011;3701;49.346;8.798;2022-08-04T02:01:13;5.20;;;4.70;;
7320;SDS011;3701;49.346;8.798;2022-08-04T02:03:40;6.67;;;5.33;;
7320;SDS011;3701;49.346;8.798;2022-08-04T02:11:46;9.33;;;5.13;;
7320;SDS011;3701;49.346;8.798;2022-08-04T02:14:27;6.50;;;5.53;;
7320;SDS011;3701;49.346;8.798;2022-08-04T02:17:21;7.23;;;5.40;;
7320;SDS011;3701;49.346;8.798;2022-08-04T02:22:41;8.10;;;5.80;;
7320;SDS011;3701;49.346;8.798;2022-08-04T02:25:18;6.10;;;5.50;;
7320;SDS011;3701;49.346;8.798;2022-08-04T02:30:29;6.10;;;5.50;;
7320;SDS011;3701;49.346;8.798;2022-08-04T02:33:03;6.20;;;5.60;;
7320;SDS011;3701;49.346;8.798;2022-08-04T02:35:37;6.40;;;5.27;;
7320;SDS011;3701;49.346;8.798;2022-08-04T02:38:11;6.57;;;5.37;;
7320;SDS011;3701;49.346;8.798;2022-08-04T02:40:38;5.97;;;4.77;;
7320;SDS011;3701;49.346;8.798;2022-08-04T02:43:07;7.70;;;5.10;;
7320;SDS011;3701;49.346;8.798;2022-08-04T02:45:37;6.37;;;5.57;;
7320;SDS011;3701;49.346;8.798;2022-08-04T02:48:05;6.63;;;5.07;;
7320;SDS011;3701;49.346;8.798;2022-08-04T02:50:36;7.20;;;5.40;;
7320;SDS011;3701;49.346;8.798;2022-08-04T02:53:03;7.20;;;5.03;;
7320;SDS011;3701;49.346;8.798;2022-08-04T02:55:29;6.60;;;5.13;;
7320;SDS011;3701;49.346;8.798;2022-08-04T02:58:01;5.87;;;5.27;;
7320;SDS011;3701;49.346;8.798;2022-08-04T03:00:34;6.10;;;4.87;;
7320;SDS011;3701;49.346;8.798;2022-08-04T03:08:50;5.80;;;5.17;;
7320;SDS011;3701;49.346;8.798;2022-08-04T03:25:52;6.83;;;5.37;;
7320;SDS011;3701;49.346;8.798;2022-08-04T03:46:33;9.63;;;5.83;;
7320;SDS011;3701;49.346;8.798;2022-08-04T04:17:16;8.53;;;5.63;;
7320;SDS011;3701;49.346;8.798;2022-08-04T04:39:13;11.37;;;5.47;;
7320;SDS011;3701;49.346;8.798;2022-08-04T04:42:01;11.70;;;5.50;;
7320;SDS011;3701;49.346;8.798;2022-08-04T04:47:23;9.40;;;6.33;;
7320;SDS011;3701;49.346;8.798;2022-08-04T04:50:18;8.13;;;5.40;;
7320;SDS011;3701;49.346;8.798;2022-08-04T04:52:57;7.90;;;5.50;;
7320;SDS011;3701;49.346;8.798;2022-08-04T04:55:28;16.93;;;7.47;;
7320;SDS011;3701;49.346;8.798;2022-08-04T04:57:59;8.10;;;5.73;;
7320;SDS011;3701;49.346;8.798;2022-08-04T05:00:33;7.03;;;5.87;;
7320;SDS011;3701;49.346;8.798;2022-08-04T05:05:58;8.10;;;5.77;;
7320;SDS011;3701;49.346;8.798;2022-08-04T05:14:26;13.20;;;5.83;;
7320;SDS011;3701;49.346;8.798;2022-08-04T05:22:36;5.90;;;4.60;;
7320;SDS011;3701;49.346;8.798;2022-08-04T05:30:27;6.50;;;4.70;;
7320;SDS011;3701;49.346;8.798;2022-08-04T05:33:08;5.23;;;4.30;;
7320;SDS011;3701;49.346;8.798;2022-08-04T05:35:44;11.60;;;4.23;;
7320;SDS011;3701;49.346;8.798;2022-08-04T05:38:13;4.20;;;3.80;;
7320;SDS011;3701;49.346;8.798;2022-08-04T05:40:44;6.70;;;3.83;;
7320;SDS011;3701;49.346;8.798;2022-08-04T05:43:10;7.63;;;4.30;;
7320;SDS011;3701;49.346;8.798;2022-08-04T05:45:41;3.87;;;3.40;;
7320;SDS011;3701;49.346;8.798;2022-08-04T05:48:14;4.13;;;3.83;;
7320;SDS011;3701;49.346;8.798;2022-08-04T05:50:41;6.33;;;3.70;;
7320;SDS011;3701;49.346;8.798;2022-08-04T05:53:09;9.20;;;4.10;;
7320;SDS011;3701;49.346;8.798;2022-08-04T05:55:41;5.70;;;4.07;;
7320;SDS011;3701;49.346;8.798;2022-08-04T05:58:10;15.07;;;4.23;;
7320;SDS011;3701;49.346;8.798;2022-08-04T06:00:37;5.67;;;3.47;;
7320;SDS011;3701;49.346;8.798;2022-08-04T06:03:08;3.57;;;3.27;;
7320;SDS011;3701;49.346;8.798;2022-08-04T06:05:34;4.03;;;2.90;;
7320;SDS011;3701;49.346;8.798;2022-08-04T06:08:05;3.53;;;3.23;;
7320;SDS011;3701;49.346;8.798;2022-08-04T06:10:33;5.10;;;3.10;;
7320;SDS011;3701;49.346;8.798;2022-08-04T06:13:04;6.73;;;3.20;;
7320;SDS011;3701;49.346;8.798;2022-08-04T06:15:34;4.80;;;3.00;;
7320;SDS011;3701;49.346;8.798;2022-08-04T06:18:06;4.80;;;3.70;;
7320;SDS011;3701;49.346;8.798;2022-08-04T06:20:34;4.07;;;3.40;;
7320;SDS011;3701;49.346;8.798;2022-08-04T06:23:03;5.13;;;3.10;;
7320;SDS011;3701;49.346;8.798;2022-08-04T06:25:45;2.90;;;2.70;;
7320;SDS011;3701;49.346;8.798;2022-08-04T06:28:15;2.70;;;2.33;;
7320;SDS011;3701;49.346;8.798;2022-08-04T06:30:44;5.13;;;3.17;;
7320;SDS011;3701;49.346;8.798;2022-08-04T06:33:13;3.00;;;2.70;;
7320;SDS011;3701;49.346;8.798;2022-08-04T06:35:54;6.60;;;2.90;;
7320;SDS011;3701;49.346;8.798;2022-08-04T06:38:21;3.70;;;3.00;;
7320;SDS011;3701;49.346;8.798;2022-08-04T06:40:52;2.67;;;2.47;;
7320;SDS011;3701;49.346;8.798;2022-08-04T06:43:18;3.80;;;2.87;;
7320;SDS011;3701;49.346;8.798;2022-08-04T06:45:48;5.47;;;2.57;;
7320;SDS011;3701;49.346;8.798;2022-08-04T06:48:14;2.60;;;2.40;;
7320;SDS011;3701;49.346;8.798;2022-08-04T06:50:42;3.53;;;2.03;;
7320;SDS011;3701;49.346;8.798;2022-08-04T06:53:14;4.70;;;2.80;;
7320;SDS011;3701;49.346;8.798;2022-08-04T06:55:44;3.00;;;2.70;;
7320;SDS011;3701;49.346;8.798;2022-08-04T06:58:11;3.83;;;2.33;;
7320;SDS011;3701;49.346;8.798;2022-08-04T07:00:38;4.55;;;2.50;;
7320;SDS011;3701;49.346;8.798;2022-08-04T07:03:05;2.80;;;2.60;;
7320;SDS011;3701;49.346;8.798;2022-08-04T07:05:31;2.85;;;2.40;;
7320;SDS011;3701;49.346;8.798;2022-08-04T07:08:00;2.67;;;2.45;;
7320;SDS011;3701;49.346;8.798;2022-08-04T07:10:26;4.70;;;2.75;;
7320;SDS011;3701;49.346;8.798;2022-08-04T07:12:52;5.85;;;2.58;;
7320;SDS011;3701;49.346;8.798;2022-08-04T07:15:18;3.47;;;2.45;;
7320;SDS011;3701;49.346;8.798;2022-08-04T07:17:45;3.50;;;2.47;;
7320;SDS011;3701;49.346;8.798;2022-08-04T07:20:11;3.03;;;2.40;;
7320;SDS011;3701;49.346;8.798;2022-08-04T07:22:36;2.38;;;2.17;;
7320;SDS011;3701;49.346;8.798;2022-08-04T07:25:07;4.90;;;2.28;;
7320;SDS011;3701;49.346;8.798;2022-08-04T07:27:37;2.92;;;2.58;;
7320;SDS011;3701;49.346;8.798;2022-08-04T07:30:09;2.75;;;2.20;;
7320;SDS011;3701;49.346;8.798;2022-08-04T07:32:35;4.18;;;2.00;;
7320;SDS011;3701;49.346;8.798;2022-08-04T07:35:07;3.70;;;1.95;;
7320;SDS011;3701;49.346;8.798;2022-08-04T07:37:37;2.17;;;1.83;;
7320;SDS011;3701;49.346;8.798;2022-08-04T07:40:02;4.15;;;2.05;;
7320;SDS011;3701;49.346;8.798;2022-08-04T07:42:29;3.70;;;2.20;;
7320;SDS011;3701;49.346;8.798;2022-08-04T07:44:54;3.10;;;2.13;;
7320;SDS011;3701;49.346;8.798;2022-08-04T07:47:20;2.40;;;2.20;;
7320;SDS011;3701;49.346;8.798;2022-08-04T07:49:46;3.20;;;2.35;;
7320;SDS011;3701;49.346;8.798;2022-08-04T07:52:14;2.25;;;1.80;;
7320;SDS011;3701;49.346;8.798;2022-08-04T07:54:40;1.83;;;1.70;;
7320;SDS011;3701;49.346;8.798;2022-08-04T07:57:06;2.72;;;1.50;;
7320;SDS011;3701;49.346;8.798;2022-08-04T07:59:32;2.33;;;1.42;;
7320;SDS011;3701;49.346;8.798;2022-08-04T08:02:01;3.65;;;1.70;;
7320;SDS011;3701;49.346;8.798;2022-08-04T08:04:27;2.50;;;1.65;;
7320;SDS011;3701;49.346;8.798;2022-08-04T08:06:55;1.98;;;1.70;;
7320;SDS011;3701;49.346;8.798;2022-08-04T08:09:26;2.42;;;1.88;;
7320;SDS011;3701;49.346;8.798;2022-08-04T08:11:54;1.88;;;1.50;;
7320;SDS011;3701;49.346;8.798;2022-08-04T08:14:20;2.38;;;1.50;;
7320;SDS011;3701;49.346;8.798;2022-08-04T08:16:48;1.73;;;1.50;;
7320;SDS011;3701;49.346;8.798;2022-08-04T08:19:13;1.40;;;1.30;;
7320;SDS011;3701;49.346;8.798;2022-08-04T08:21:44;1.75;;;1.65;;
7320;SDS011;3701;49.346;8.798;2022-08-04T08:24:11;3.05;;;1.60;;
7320;SDS011;3701;49.346;8.798;2022-08-04T08:26:39;3.08;;;1.60;;
7320;SDS011;3701;49.346;8.798;2022-08-04T08:29:06;1.95;;;1.77;;
7320;SDS011;3701;49.346;8.798;2022-08-04T08:31:31;1.83;;;1.73;;
7320;SDS011;3701;49.346;8.798;2022-08-04T08:33:58;2.70;;;1.60;;
7320;SDS011;3701;49.346;8.798;2022-08-04T08:36:28;1.75;;;1.60;;
7320;SDS011;3701;49.346;8.798;2022-08-04T08:39:31;2.85;;;1.52;;
7320;SDS011;3701;49.346;8.798;2022-08-04T08:50:33;3.80;;;1.60;;
7320;SDS011;3701;49.346;8.798;2022-08-04T08:56:11;1.77;;;1.63;;
7320;SDS011;3701;49.346;8.798;2022-08-04T09:06:56;5.68;;;1.80;;
7320;SDS011;3701;49.346;8.798;2022-08-04T09:18:25;3.95;;;1.70;;
7320;SDS011;3701;49.346;8.798;2022-08-04T09:26:18;6.32;;;1.63;;
7320;SDS011;3701;49.346;8.798;2022-08-04T09:31:35;2.58;;;1.65;;
7320;SDS011;3701;49.346;8.798;2022-08-04T09:34:22;5.28;;;1.65;;
7320;SDS011;3701;49.346;8.798;2022-08-04T09:37:01;1.90;;;1.80;;
7320;SDS011;3701;49.346;8.798;2022-08-04T09:42:21;1.90;;;1.80;;
7320;SDS011;3701;49.346;8.798;2022-08-04T09:47:50;3.28;;;1.80;;
7320;SDS011;3701;49.346;8.798;2022-08-04T09:50:34;4.40;;;1.88;;
7320;SDS011;3701;49.346;8.798;2022-08-04T09:56:40;2.35;;;2.00;;
7320;SDS011;3701;49.346;8.798;2022-08-04T10:01:44;5.20;;;2.13;;
7320;SDS011;3701;49.346;8.798;2022-08-04T10:04:14;2.67;;;2.00;;
7320;SDS011;3701;49.346;8.798;2022-08-04T10:12:10;3.13;;;2.08;;
7320;SDS011;3701;49.346;8.798;2022-08-04T10:28:43;2.42;;;1.92;;
7320;SDS011;3701;49.346;8.798;2022-08-04T10:31:19;1.92;;;1.83;;
7320;SDS011;3701;49.346;8.798;2022-08-04T10:33:51;1.90;;;1.80;;
7320;SDS011;3701;49.346;8.798;2022-08-04T10:36:25;2.00;;;1.90;;
7320;SDS011;3701;49.346;8.798;2022-08-04T10:39:00;2.83;;;1.77;;
7320;SDS011;3701;49.346;8.798;2022-08-04T10:44:54;2.13;;;1.98;;
7320;SDS011;3701;49.346;8.798;2022-08-04T10:47:37;3.05;;;1.88;;
7320;SDS011;3701;49.346;8.798;2022-08-04T10:50:08;2.20;;;2.00;;
7320;SDS011;3701;49.346;8.798;2022-08-04T10:55:20;2.30;;;1.90;;
7320;SDS011;3701;49.346;8.798;2022-08-04T10:57:51;3.20;;;2.05;;
7320;SDS011;3701;49.346;8.798;2022-08-04T11:00:24;2.67;;;2.03;;
7320;SDS011;3701;49.346;8.798;2022-08-04T11:16:18;2.63;;;1.80;;
7320;SDS011;3701;49.346;8.798;2022-08-04T11:18:55;2.58;;;2.10;;
7320;SDS011;3701;49.346;8.798;2022-08-04T11:21:44;4.32;;;2.25;;
7320;SDS011;3701;49.346;8.798;2022-08-04T11:24:17;3.28;;;2.00;;
7320;SDS011;3701;49.346;8.798;2022-08-04T11:26:48;2.55;;;1.80;;
7320;SDS011;3701;49.346;8.798;2022-08-04T11:29:24;2.20;;;2.10;;
7320;SDS011;3701;49.346;8.798;2022-08-04T11:31:53;2.13;;;1.90;;
7320;SDS011;3701;49.346;8.798;2022-08-04T11:34:25;1.80;;;1.50;;
7320;SDS011;3701;49.346;8.798;2022-08-04T11:50:24;4.85;;;2.20;;
7320;SDS011;3701;49.346;8.798;2022-08-04T11:52:56;1.90;;;1.75;;
7320;SDS011;3701;49.346;8.798;2022-08-04T11:55:24;1.70;;;1.60;;
7320;SDS011;3701;49.346;8.798;2022-08-04T11:57:52;1.58;;;1.48;;
7320;SDS011;3701;49.346;8.798;2022-08-04T12:00:18;1.80;;;1.70;;
7320;SDS011;3701;49.346;8.798;2022-08-04T12:02:53;2.72;;;1.48;;
7320;SDS011;3701;49.346;8.798;2022-08-04T12:05:31;1.67;;;1.42;;
7320;SDS011;3701;49.346;8.798;2022-08-04T12:14:11;4.25;;;1.40;;
7320;SDS011;3701;49.346;8.798;2022-08-04T12:16:59;4.97;;;1.60;;
7320;SDS011;3701;49.346;8.798;2022-08-04T12:19:38;2.25;;;1.30;;
7320;SDS011;3701;49.346;8.798;2022-08-04T12:22:15;1.48;;;1.25;;
7320;SDS011;3701;49.346;8.798;2022-08-04T12:24:46;2.00;;;1.40;;
7320;SDS011;3701;49.346;8.798;2022-08-04T12:27:19;1.50;;;1.40;;
7320;SDS011;3701;49.346;8.798;2022-08-04T12:29:50;3.22;;;1.60;;
7320;SDS011;3701;49.346;8.798;2022-08-04T12:40:39;1.65;;;1.55;;
7320;SDS011;3701;49.346;8.798;2022-08-04T12:43:35;1.35;;;1.20;;
7320;SDS011;3701;49.346;8.798;2022-08-04T12:46:09;2.80;;;1.40;;
7320;SDS011;3701;49.346;8.798;2022-08-04T12:48:45;1.40;;;1.30;;
7320;SDS011;3701;49.346;8.798;2022-08-04T12:51:11;3.15;;;1.40;;
7320;SDS011;3701;49.346;8.798;2022-08-04T12:53:41;2.00;;;1.30;;
7320;SDS011;3701;49.346;8.798;2022-08-04T12:56:08;1.52;;;1.10;;
7320;SDS011;3701;49.346;8.798;2022-08-04T12:58:45;4.20;;;1.30;;
7320;SDS011;3701;49.346;8.798;2022-08-04T13:01:19;1.63;;;1.23;;
7320;SDS011;3701;49.346;8.798;2022-08-04T13:03:53;1.65;;;1.27;;
7320;SDS011;3701;49.346;8.798;2022-08-04T13:06:29;2.63;;;1.33;;
7320;SDS011;3701;49.346;8.798;2022-08-04T13:09:06;2.90;;;1.40;;
7320;SDS011;3701;49.346;8.798;2022-08-04T13:11:55;2.42;;;0.95;;
7320;SDS011;3701;49.346;8.798;2022-08-04T13:14:23;2.80;;;1.05;;
7320;SDS011;3701;49.346;8.798;2022-08-04T13:16:56;1.48;;;1.38;;
7320;SDS011;3701;49.346;8.798;2022-08-04T13:19:23;2.30;;;1.23;;
7320;SDS011;3701;49.346;8.798;2022-08-04T13:21:49;1.15;;;1.05;;
7320;SDS011;3701;49.346;8.798;2022-08-04T13:24:19;1.60;;;1.38;;
7320;SDS011;3701;49.346;8.798;2022-08-04T13:26:55;1.50;;;1.30;;
7320;SDS011;3701;49.346;8.798;2022-08-04T13:29:33;1.25;;;1.15;;
7320;SDS011;3701;49.346;8.798;2022-08-04T13:32:05;1.42;;;1.30;;
7320;SDS011;3701;49.346;8.798;2022-08-04T13:34:33;1.88;;;1.35;;
7320;SDS011;3701;49.346;8.798;2022-08-04T13:37:01;1.95;;;1.27;;
7320;SDS011;3701;49.346;8.798;2022-08-04T13:39:28;1.58;;;1.48;;
7320;SDS011;3701;49.346;8.798;2022-08-04T13:41:58;1.75;;;1.35;;
7320;SDS011;3701;49.346;8.798;2022-08-04T13:44:30;1.30;;;1.20;;
7320;SDS011;3701;49.346;8.798;2022-08-04T13:47:06;1.30;;;1.20;;
7320;SDS011;3701;49.346;8.798;2022-08-04T13:49:36;1.15;;;1.05;;
7320;SDS011;3701;49.346;8.798;2022-08-04T13:52:06;1.73;;;1.38;;
7320;SDS011;3701;49.346;8.798;2022-08-04T13:54:43;1.40;;;1.30;;
7320;SDS011;3701;49.346;8.798;2022-08-04T13:57:18;2.30;;;1.23;;
7320;SDS011;3701;49.346;8.798;2022-08-04T13:59:52;1.55;;;1.45;;
7320;SDS011;3701;49.346;8.798;2022-08-04T14:03:20;1.70;;;1.60;;
7320;SDS011;3701;49.346;8.798;2022-08-04T14:05:29;2.08;;;1.52;;
7320;SDS011;3701;49.346;8.798;2022-08-04T14:10:31;3.10;;;1.45;;
7320;SDS011;3701;49.346;8.798;2022-08-04T14:12:57;4.65;;;1.52;;
7320;SDS011;3701;49.346;8.798;2022-08-04T14:21:03;4.28;;;1.48;;
7320;SDS011;3701;49.346;8.798;2022-08-04T14:23:37;1.80;;;1.20;;
7320;SDS011;3701;49.346;8.798;2022-08-04T14:26:12;1.70;;;1.40;;
7320;SDS011;3701;49.346;8.798;2022-08-04T14:28:41;1.85;;;1.30;;
7320;SDS011;3701;49.346;8.798;2022-08-04T14:31:08;1.30;;;1.20;;
7320;SDS011;3701;49.346;8.798;2022-08-04T14:33:37;1.48;;;1.38;;
7320;SDS011;3701;49.346;8.798;2022-08-04T14:36:04;2.50;;;1.50;;
7320;SDS011;3701;49.346;8.798;2022-08-04T14:38:41;1.30;;;1.20;;
7320;SDS011;3701;49.346;8.798;2022-08-04T14:41:09;1.30;;;1.20;;
7320;SDS011;3701;49.346;8.798;2022-08-04T14:43:54;1.70;;;1.27;;
7320;SDS011;3701;49.346;8.798;2022-08-04T14:46:25;1.20;;;1.10;;
7320;SDS011;3701;49.346;8.798;2022-08-04T14:52:21;1.35;;;1.10;;
7320;SDS011;3701;49.346;8.798;2022-08-04T14:54:27;2.83;;;1.00;;
7320;SDS011;3701;49.346;8.798;2022-08-04T14:57:01;3.78;;;1.02;;
7320;SDS011;3701;49.346;8.798;2022-08-04T14:59:45;0.80;;;0.80;;
7320;SDS011;3701;49.346;8.798;2022-08-04T15:02:12;1.20;;;1.10;;
7320;SDS011;3701;49.346;8.798;2022-08-04T15:04:41;1.13;;;1.02;;
7320;SDS011;3701;49.346;8.798;2022-08-04T15:07:11;1.30;;;1.10;;
7320;SDS011;3701;49.346;8.798;2022-08-04T15:09:38;2.00;;;1.13;;
7320;SDS011;3701;49.346;8.798;2022-08-04T15:12:09;1.80;;;1.00;;
7320;SDS011;3701;49.346;8.798;2022-08-04T15:14:37;2.88;;;0.98;;
7320;SDS011;3701;49.346;8.798;2022-08-04T15:17:08;1.88;;;1.00;;
7320;SDS011;3701;49.346;8.798;2022-08-04T15:19:35;2.17;;;1.05;;
7320;SDS011;3701;49.346;8.798;2022-08-04T15:22:01;1.13;;;1.02;;
7320;SDS011;3701;49.346;8.798;2022-08-04T15:24:29;0.90;;;0.90;;
7320;SDS011;3701;49.346;8.798;2022-08-04T15:26:55;0.90;;;0.90;;
7320;SDS011;3701;49.346;8.798;2022-08-04T15:29:40;1.00;;;0.93;;
7320;SDS011;3701;49.346;8.798;2022-08-04T15:32:11;1.10;;;1.00;;
7320;SDS011;3701;49.346;8.798;2022-08-04T15:34:43;0.98;;;0.98;;
7320;SDS011;3701;49.346;8.798;2022-08-04T15:37:12;1.50;;;1.00;;
7320;SDS011;3701;49.346;8.798;2022-08-04T15:39:43;1.88;;;0.90;;
7320;SDS011;3701;49.346;8.798;2022-08-04T15:47:15;1.60;;;0.80;;
7320;SDS011;3701;49.346;8.798;2022-08-04T15:49:44;2.15;;;0.90;;
7320;SDS011;3701;49.346;8.798;2022-08-04T15:52:13;1.15;;;0.90;;
7320;SDS011;3701;49.346;8.798;2022-08-04T15:54:42;2.97;;;0.93;;
7320;SDS011;3701;49.346;8.798;2022-08-04T15:57:10;1.10;;;1.00;;
7320;SDS011;3701;49.346;8.798;2022-08-04T16:02:37;1.15;;;0.95;;
7320;SDS011;3701;49.346;8.798;2022-08-04T16:07:51;0.90;;;0.90;;
7320;SDS011;3701;49.346;8.798;2022-08-04T16:13:03;1.08;;;0.95;;
7320;SDS011;3701;49.346;8.798;2022-08-04T16:15:49;1.92;;;1.00;;
7320;SDS011;3701;49.346;8.798;2022-08-04T16:20:50;1.48;;;0.90;;
7320;SDS011;3701;49.346;8.798;2022-08-04T16:23:27;1.50;;;0.85;;
7320;SDS011;3701;49.346;8.798;2022-08-04T16:26:12;1.48;;;1.10;;
7320;SDS011;3701;49.346;8.798;2022-08-04T16:28:42;1.10;;;1.00;;
7320;SDS011;3701;49.346;8.798;2022-08-04T16:31:08;0.90;;;0.90;;
7320;SDS011;3701;49.346;8.798;2022-08-04T16:33:35;1.00;;;0.90;;
7320;SDS011;3701;49.346;8.798;2022-08-04T16:36:04;1.00;;;1.00;;
7320;SDS011;3701;49.346;8.798;2022-08-04T16:38:31;1.25;;;0.90;;
7320;SDS011;3701;49.346;8.798;2022-08-04T16:41:17;2.65;;;0.90;;
7320;SDS011;3701;49.346;8.798;2022-08-04T16:46:58;2.08;;;1.00;;
7320;SDS011;3701;49.346;8.798;2022-08-04T16:49:29;1.65;;;1.25;;
7320;SDS011;3701;49.346;8.798;2022-08-04T16:52:00;2.97;;;1.08;;
7320;SDS011;3701;49.346;8.798;2022-08-04T16:54:34;1.88;;;1.13;;
7320;SDS011;3701;49.346;8.798;2022-08-04T16:57:10;3.15;;;1.50;;
7320;SDS011;3701;49.346;8.798;2022-08-04T16:59:36;1.48;;;1.38;;
7320;SDS011;3701;49.346;8.798;2022-08-04T17:02:02;1.10;;;1.00;;
7320;SDS011;3701;49.346;8.798;2022-08-04T17:04:33;1.38;;;1.27;;
7320;SDS011;3701;49.346;8.798;2022-08-04T17:07:00;1.35;;;1.25;;
7320;SDS011;3701;49.346;8.798;2022-08-04T17:09:28;2.33;;;1.38;;
7320;SDS011;3701;49.346;8.798;2022-08-04T17:11:54;1.42;;;1.20;;
7320;SDS011;3701;49.346;8.798;2022-08-04T17:14:21;1.70;;;1.30;;
7320;SDS011;3701;49.346;8.798;2022-08-04T17:16:52;1.90;;;1.20;;
7320;SDS011;3701;49.346;8.798;2022-08-04T17:19:21;2.63;;;1.10;;
7320;SDS011;3701;49.346;8.798;2022-08-04T17:21:48;3.90;;;1.13;;
7320;SDS011;3701;49.346;8.798;2022-08-04T17:24:16;1.17;;;1.05;;
7320;SDS011;3701;49.346;8.798;2022-08-04T17:26:42;1.08;;;1.02;;
7320;SDS011;3701;49.346;8.798;2022-08-04T17:29:14;1.30;;;1.20;;
7320;SDS011;3701;49.346;8.798;2022-08-04T17:31:45;1.33;;;1.17;;
7320;SDS011;3701;49.346;8.798;2022-08-04T17:34:14;1.08;;;0.93;;
7320;SDS011;3701;49.346;8.798;2022-08-04T17:36:45;1.33;;;1.10;;
7320;SDS011;3701;49.346;8.798;2022-08-04T17:39:14;4.40;;;1.20;;
7320;SDS011;3701;49.346;8.798;2022-08-04T17:41:44;1.40;;;1.20;;
7320;SDS011;3701;49.346;8.798;2022-08-04T17:44:10;4.72;;;1.25;;
7320;SDS011;3701;49.346;8.798;2022-08-04T17:46:44;1.73;;;1.27;;
7320;SDS011;3701;49.346;8.798;2022-08-04T17:51:41;1.70;;;1.20;;
7320;SDS011;3701;49.346;8.798;2022-08-04T17:54:27;1.75;;;1.35;;
7320;SDS011;3701;49.346;8.798;2022-08-04T17:56:57;1.60;;;1.50;;
7320;SDS011;3701;49.346;8.798;2022-08-04T18:01:58;4.45;;;1.38;;
7320;SDS011;3701;49.346;8.798;2022-08-04T18:06:50;2.15;;;1.15;;
7320;SDS011;3701;49.346;8.798;2022-08-04T18:14:20;2.27;;;1.50;;
7320;SDS011;3701;49.346;8.798;2022-08-04T18:16:46;1.37;;;1.27;;
7320;SDS011;3701;49.346;8.798;2022-08-04T18:19:14;4.80;;;1.83;;
7320;SDS011;3701;49.346;8.798;2022-08-04T18:21:41;1.93;;;1.30;;
7320;SDS011;3701;49.346;8.798;2022-08-04T18:24:09;2.50;;;1.30;;
7320;SDS011;3701;49.346;8.798;2022-08-04T18:26:35;1.30;;;1.20;;
7320;SDS011;3701;49.346;8.798;2022-08-04T18:29:03;1.60;;;1.50;;
7320;SDS011;3701;49.346;8.798;2022-08-04T18:31:34;3.10;;;1.47;;
7320;SDS011;3701;49.346;8.798;2022-08-04T18:34:06;2.37;;;1.23;;
7320;SDS011;3701;49.346;8.798;2022-08-04T18:36:32;1.60;;;1.43;;
7320;SDS011;3701;49.346;8.798;2022-08-04T18:39:02;2.17;;;1.40;;
7320;SDS011;3701;49.346;8.798;2022-08-04T18:41:29;2.30;;;1.30;;
7320;SDS011;3701;49.346;8.798;2022-08-04T18:43:55;2.37;;;1.60;;
7320;SDS011;3701;49.346;8.798;2022-08-04T18:46:23;2.70;;;1.43;;
7320;SDS011;3701;49.346;8.798;2022-08-04T18:48:49;1.60;;;1.50;;
7320;SDS011;3701;49.346;8.798;2022-08-04T18:51:14;2.70;;;1.53;;
7320;SDS011;3701;49.346;8.798;2022-08-04T18:53:40;2.80;;;1.93;;
7320;SDS011;3701;49.346;8.798;2022-08-04T18:56:05;2.90;;;1.40;;
7320;SDS011;3701;49.346;8.798;2022-08-04T18:58:31;4.87;;;1.57;;
7320;SDS011;3701;49.346;8.798;2022-08-04T19:00:56;4.97;;;1.73;;
7320;SDS011;3701;49.346;8.798;2022-08-04T19:03:22;1.77;;;1.50;;
7320;SDS011;3701;49.346;8.798;2022-08-04T19:05:47;3.00;;;1.50;;
7320;SDS011;3701;49.346;8.798;2022-08-04T19:08:16;4.20;;;1.87;;
7320;SDS011;3701;49.346;8.798;2022-08-04T19:10:42;5.33;;;1.83;;
7320;SDS011;3701;49.346;8.798;2022-08-04T19:13:07;1.70;;;1.60;;
7320;SDS011;3701;49.346;8.798;2022-08-04T19:15:32;3.87;;;1.70;;
7320;SDS011;3701;49.346;8.798;2022-08-04T19:17:58;3.80;;;1.53;;
7320;SDS011;3701;49.346;8.798;2022-08-04T19:20:26;3.30;;;1.87;;
7320;SDS011;3701;49.346;8.798;2022-08-04T19:22:55;4.90;;;1.80;;
7320;SDS011;3701;49.346;8.798;2022-08-04T19:25:21;2.03;;;1.67;;
7320;SDS011;3701;49.346;8.798;2022-08-04T19:27:46;6.43;;;1.87;;
7320;SDS011;3701;49.346;8.798;2022-08-04T19:30:14;2.20;;;1.93;;
7320;SDS011;3701;49.346;8.798;2022-08-04T19:32:40;1.80;;;1.70;;
7320;SDS011;3701;49.346;8.798;2022-08-04T19:35:07;2.03;;;1.60;;
7320;SDS011;3701;49.346;8.798;2022-08-04T19:37:35;2.63;;;1.90;;
7320;SDS011;3701;49.346;8.798;2022-08-04T19:40:03;2.80;;;1.80;;
7320;SDS011;3701;49.346;8.798;2022-08-04T19:42:32;4.47;;;1.87;;
7320;SDS011;3701;49.346;8.798;2022-08-04T19:44:58;2.83;;;2.00;;
7320;SDS011;3701;49.346;8.798;2022-08-04T19:47:24;2.10;;;1.63;;
7320;SDS011;3701;49.346;8.798;2022-08-04T19:49:49;3.20;;;2.10;;
7320;SDS011;3701;49.346;8.798;2022-08-04T19:52:15;6.00;;;1.97;;
7320;SDS011;3701;49.346;8.798;2022-08-04T19:54:41;2.57;;;1.83;;
7320;SDS011;3701;49.346;8.798;2022-08-04T19:57:09;6.17;;;1.80;;
7320;SDS011;3701;49.346;8.798;2022-08-04T19:59:34;2.23;;;1.80;;
7320;SDS011;3701;49.346;8.798;2022-08-04T20:02:02;1.90;;;1.80;;
7320;SDS011;3701;49.346;8.798;2022-08-04T20:04:27;3.30;;;1.97;;
7320;SDS011;3701;49.346;8.798;2022-08-04T20:06:55;2.10;;;1.90;;
7320;SDS011;3701;49.346;8.798;2022-08-04T20:09:21;4.60;;;1.83;;
7320;SDS011;3701;49.346;8.798;2022-08-04T20:11:49;1.80;;;1.70;;
7320;SDS011;3701;49.346;8.798;2022-08-04T20:14:14;3.13;;;1.97;;
7320;SDS011;3701;49.346;8.798;2022-08-04T20:16:40;2.03;;;1.83;;
7320;SDS011;3701;49.346;8.798;2022-08-04T20:19:10;2.13;;;1.93;;
7320;SDS011;3701;49.346;8.798;2022-08-04T20:21:35;3.00;;;1.97;;
7320;SDS011;3701;49.346;8.798;2022-08-04T20:24:01;4.43;;;1.97;;
7320;SDS011;3701;49.346;8.798;2022-08-04T20:26:26;2.60;;;1.93;;
7320;SDS011;3701;49.346;8.798;2022-08-04T20:28:52;6.37;;;2.03;;
7320;SDS011;3701;49.346;8.798;2022-08-04T20:31:17;6.60;;;2.47;;
7320;SDS011;3701;49.346;8.798;2022-08-04T20:33:42;2.30;;;2.10;;
7320;SDS011;3701;49.346;8.798;2022-08-04T20:36:11;5.20;;;2.80;;
7320;SDS011;3701;49.346;8.798;2022-08-04T20:38:38;2.37;;;2.07;;
7320;SDS011;3701;49.346;8.798;2022-08-04T20:41:04;2.17;;;1.80;;
7320;SDS011;3701;49.346;8.798;2022-08-04T20:43:29;2.90;;;1.90;;
7320;SDS011;3701;49.346;8.798;2022-08-04T20:45:55;3.00;;;2.10;;
7320;SDS011;3701;49.346;8.798;2022-08-04T20:48:25;2.77;;;2.10;;
7320;SDS011;3701;49.346;8.798;2022-08-04T20:50:54;3.13;;;1.83;;
7320;SDS011;3701;49.346;8.798;2022-08-04T20:53:19;3.33;;;1.80;;
7320;SDS011;3701;49.346;8.798;2022-08-04T20:55:47;2.30;;;2.10;;
7320;SDS011;3701;49.346;8.798;2022-08-04T20:58:13;2.33;;;2.13;;
7320;SDS011;3701;49.346;8.798;2022-08-04T21:00:38;2.60;;;2.20;;
7320;SDS011;3701;49.346;8.798;2022-08-04T21:03:03;1.80;;;1.70;;
7320;SDS011;3701;49.346;8.798;2022-08-04T21:05:31;2.73;;;1.97;;
7320;SDS011;3701;49.346;8.798;2022-08-04T21:07:57;2.37;;;1.90;;
7320;SDS011;3701;49.346;8.798;2022-08-04T21:10:26;2.53;;;2.10;;
7320;SDS011;3701;49.346;8.798;2022-08-04T21:12:52;2.53;;;1.93;;
7320;SDS011;3701;49.346;8.798;2022-08-04T21:15:18;7.80;;;2.67;;
7320;SDS011;3701;49.346;8.798;2022-08-04T21:17:43;2.37;;;2.17;;
7320;SDS011;3701;49.346;8.798;2022-08-04T21:20:09;4.37;;;2.07;;
7320;SDS011;3701;49.346;8.798;2022-08-04T21:22:38;2.90;;;1.93;;
7320;SDS011;3701;49.346;8.798;2022-08-04T21:25:03;1.90;;;1.70;;
7320;SDS011;3701;49.346;8.798;2022-08-04T21:27:31;3.17;;;1.90;;
7320;SDS011;3701;49.346;8.798;2022-08-04T21:29:59;3.07;;;2.13;;
7320;SDS011;3701;49.346;8.798;2022-08-04T21:32:24;2.07;;;1.90;;
7320;SDS011;3701;49.346;8.798;2022-08-04T21:34:49;2.93;;;1.97;;
7320;SDS011;3701;49.346;8.798;2022-08-04T21:37:17;4.53;;;2.20;;
7320;SDS011;3701;49.346;8.798;2022-08-04T21:39:43;2.37;;;2.07;;